sensor_id;sensor_type;location;lat;lon;timestamp;temperature;humidity
20524;DHT22;10420;48.542;12.270;2022-11-11T00:03:11;3.70;99.90
20524;DHT22;10420;48.542;12.270;2022-11-11T00:08:11;3.60;99.90
20524;DHT22;10420;48.542;12.270;2022-11-11T00:13:12;3.60;99.90
20524;DHT22;10420;48.542;12.270;2022-11-11T00:18:12;3.50;99.90
20524;DHT22;10420;48.542;12.270;2022-11-11T00:23:32;3.40;99.90
20524;DHT22;10420;48.542;12.270;2022-11-11T00:28:51;3.50;99.90
20524;DHT22;10420;48.542;12.270;2022-11-11T00:33:52;3.50;99.90
20524;DHT22;10420;48.542;12.270;2022-11-11T00:38:53;3.50;99.90
20524;DHT22;10420;48.542;12.270;2022-11-11T00:43:55;3.40;99.90
20524;DHT22;10420;48.542;12.270;2022-11-11T00:48:55;3.40;99.90
20524;DHT22;10420;48.542;12.270;2022-11-11T00:54:14;3.40;99.90
20524;DHT22;10420;48.542;12.270;2022-11-11T00:59:15;3.30;99.90
20524;DHT22;10420;48.542;12.270;2022-11-11T01:04:16;3.20;99.90
20524;DHT22;10420;48.542;12.270;2022-11-11T01:09:16;3.30;99.90
20524;DHT22;10420;48.542;12.270;2022-11-11T01:14:17;3.30;99.90
20524;DHT22;10420;48.542;12.270;2022-11-11T01:19:18;3.30;99.90
20524;DHT22;10420;48.542;12.270;2022-11-11T01:24:18;3.20;99.90
20524;DHT22;10420;48.542;12.270;2022-11-11T01:29:19;3.20;99.90
20524;DHT22;10420;48.542;12.270;2022-11-11T01:34:19;3.20;99.90
20524;DHT22;10420;48.542;12.270;2022-11-11T01:39:20;3.20;99.90
20524;DHT22;10420;48.542;12.270;2022-11-11T01:44:45;3.10;99.90
20524;DHT22;10420;48.542;12.270;2022-11-11T01:49:56;3.10;99.90
20524;DHT22;10420;48.542;12.270;2022-11-11T02:00:08;3.00;99.90
20524;DHT22;10420;48.542;12.270;2022-11-11T02:05:12;3.00;99.90
20524;DHT22;10420;48.542;12.270;2022-11-11T02:10:33;3.00;99.90
20524;DHT22;10420;48.542;12.270;2022-11-11T02:15:34;2.80;99.90
20524;DHT22;10420;48.542;12.270;2022-11-11T02:20:38;3.00;99.90
20524;DHT22;10420;48.542;12.270;2022-11-11T02:25:43;2.90;99.90
20524;DHT22;10420;48.542;12.270;2022-11-11T02:30:45;2.80;99.90
20524;DHT22;10420;48.542;12.270;2022-11-11T02:35:49;2.80;99.90
20524;DHT22;10420;48.542;12.270;2022-11-11T02:40:56;2.90;99.90
20524;DHT22;10420;48.542;12.270;2022-11-11T02:46:16;2.80;99.90
20524;DHT22;10420;48.542;12.270;2022-11-11T02:51:16;2.90;99.90
20524;DHT22;10420;48.542;12.270;2022-11-11T02:56:17;2.90;99.90
20524;DHT22;10420;48.542;12.270;2022-11-11T03:01:38;2.90;99.90
20524;DHT22;10420;48.542;12.270;2022-11-11T03:06:38;2.80;99.90
20524;DHT22;10420;48.542;12.270;2022-11-11T03:11:39;2.90;99.90
20524;DHT22;10420;48.542;12.270;2022-11-11T03:16:40;2.90;99.90
20524;DHT22;10420;48.542;12.270;2022-11-11T03:21:59;2.90;99.90
20524;DHT22;10420;48.542;12.270;2022-11-11T03:27:00;2.90;99.90
20524;DHT22;10420;48.542;12.270;2022-11-11T03:32:01;2.90;99.90
20524;DHT22;10420;48.542;12.270;2022-11-11T03:37:03;2.90;99.90
20524;DHT22;10420;48.542;12.270;2022-11-11T03:42:23;2.80;99.90
20524;DHT22;10420;48.542;12.270;2022-11-11T03:47:23;2.80;99.90
20524;DHT22;10420;48.542;12.270;2022-11-11T03:52:24;2.60;99.90
20524;DHT22;10420;48.542;12.270;2022-11-11T03:57:25;2.70;99.90
20524;DHT22;10420;48.542;12.270;2022-11-11T04:02:31;2.70;99.90
20524;DHT22;10420;48.542;12.270;2022-11-11T04:07:50;2.70;99.90
20524;DHT22;10420;48.542;12.270;2022-11-11T04:13:10;2.60;99.90
20524;DHT22;10420;48.542;12.270;2022-11-11T04:18:29;2.60;99.90
20524;DHT22;10420;48.542;12.270;2022-11-11T04:23:48;2.50;99.90
20524;DHT22;10420;48.542;12.270;2022-11-11T04:28:49;2.50;99.90
20524;DHT22;10420;48.542;12.270;2022-11-11T04:34:08;2.50;99.90
20524;DHT22;10420;48.542;12.270;2022-11-11T04:39:09;2.50;99.90
20524;DHT22;10420;48.542;12.270;2022-11-11T04:44:28;2.50;99.90
20524;DHT22;10420;48.542;12.270;2022-11-11T04:49:47;2.50;99.90
20524;DHT22;10420;48.542;12.270;2022-11-11T04:54:48;2.70;99.90
20524;DHT22;10420;48.542;12.270;2022-11-11T05:00:09;2.80;99.90
20524;DHT22;10420;48.542;12.270;2022-11-11T05:05:10;2.60;99.90
20524;DHT22;10420;48.542;12.270;2022-11-11T05:10:11;2.50;99.90
20524;DHT22;10420;48.542;12.270;2022-11-11T05:15:12;2.70;99.90
20524;DHT22;10420;48.542;12.270;2022-11-11T05:20:31;2.60;99.90
20524;DHT22;10420;48.542;12.270;2022-11-11T05:25:51;2.70;99.90
20524;DHT22;10420;48.542;12.270;2022-11-11T05:30:51;2.60;99.90
20524;DHT22;10420;48.542;12.270;2022-11-11T05:35:52;2.60;99.90
20524;DHT22;10420;48.542;12.270;2022-11-11T05:40:54;2.70;99.90
20524;DHT22;10420;48.542;12.270;2022-11-11T05:45:55;2.60;99.90
20524;DHT22;10420;48.542;12.270;2022-11-11T05:50:57;2.50;99.90
20524;DHT22;10420;48.542;12.270;2022-11-11T05:55:58;2.60;99.90
20524;DHT22;10420;48.542;12.270;2022-11-11T06:00:59;2.60;99.90
20524;DHT22;10420;48.542;12.270;2022-11-11T06:05:59;2.50;99.90
20524;DHT22;10420;48.542;12.270;2022-11-11T06:11:00;2.50;99.90
20524;DHT22;10420;48.542;12.270;2022-11-11T06:16:01;2.40;99.90
20524;DHT22;10420;48.542;12.270;2022-11-11T06:21:02;2.40;99.90
20524;DHT22;10420;48.542;12.270;2022-11-11T06:26:03;2.40;99.90
20524;DHT22;10420;48.542;12.270;2022-11-11T06:31:16;2.40;99.90
20524;DHT22;10420;48.542;12.270;2022-11-11T06:36:19;2.50;99.90
20524;DHT22;10420;48.542;12.270;2022-11-11T06:41:20;2.50;99.90
20524;DHT22;10420;48.542;12.270;2022-11-11T06:46:24;2.60;99.90
20524;DHT22;10420;48.542;12.270;2022-11-11T06:51:27;2.80;99.90
20524;DHT22;10420;48.542;12.270;2022-11-11T06:56:28;2.90;99.90
20524;DHT22;10420;48.542;12.270;2022-11-11T07:01:29;3.00;99.90
20524;DHT22;10420;48.542;12.270;2022-11-11T07:06:29;3.00;99.90
20524;DHT22;10420;48.542;12.270;2022-11-11T07:11:30;3.30;99.90
20524;DHT22;10420;48.542;12.270;2022-11-11T07:16:30;3.60;99.90
20524;DHT22;10420;48.542;12.270;2022-11-11T07:21:31;3.80;99.90
20524;DHT22;10420;48.542;12.270;2022-11-11T07:26:32;3.90;99.90
20524;DHT22;10420;48.542;12.270;2022-11-11T07:31:32;4.40;99.90
20524;DHT22;10420;48.542;12.270;2022-11-11T07:36:33;4.60;99.90
20524;DHT22;10420;48.542;12.270;2022-11-11T07:41:34;5.10;99.90
20524;DHT22;10420;48.542;12.270;2022-11-11T07:46:34;5.30;99.90
20524;DHT22;10420;48.542;12.270;2022-11-11T07:51:35;5.40;99.90
20524;DHT22;10420;48.542;12.270;2022-11-11T07:56:36;5.70;99.90
20524;DHT22;10420;48.542;12.270;2022-11-11T08:01:36;5.70;99.90
20524;DHT22;10420;48.542;12.270;2022-11-11T08:06:37;5.90;99.90
20524;DHT22;10420;48.542;12.270;2022-11-11T08:11:38;6.20;99.90
20524;DHT22;10420;48.542;12.270;2022-11-11T08:16:57;6.40;99.90
20524;DHT22;10420;48.542;12.270;2022-11-11T08:21:57;6.70;99.90
20524;DHT22;10420;48.542;12.270;2022-11-11T08:26:58;6.80;99.90
20524;DHT22;10420;48.542;12.270;2022-11-11T08:32:00;7.10;99.90
20524;DHT22;10420;48.542;12.270;2022-11-11T08:37:00;7.40;99.90
20524;DHT22;10420;48.542;12.270;2022-11-11T08:42:01;7.80;99.90
20524;DHT22;10420;48.542;12.270;2022-11-11T08:47:02;8.10;99.90
20524;DHT22;10420;48.542;12.270;2022-11-11T08:52:02;8.20;99.90
20524;DHT22;10420;48.542;12.270;2022-11-11T08:57:03;8.10;99.90
20524;DHT22;10420;48.542;12.270;2022-11-11T09:02:03;8.30;99.90
20524;DHT22;10420;48.542;12.270;2022-11-11T09:07:06;8.20;99.90
20524;DHT22;10420;48.542;12.270;2022-11-11T09:12:06;8.40;99.90
20524;DHT22;10420;48.542;12.270;2022-11-11T09:17:07;8.40;99.90
20524;DHT22;10420;48.542;12.270;2022-11-11T09:22:08;8.50;99.90
20524;DHT22;10420;48.542;12.270;2022-11-11T09:27:09;8.80;99.90
20524;DHT22;10420;48.542;12.270;2022-11-11T09:32:10;8.60;99.90
20524;DHT22;10420;48.542;12.270;2022-11-11T09:37:10;9.30;99.90
20524;DHT22;10420;48.542;12.270;2022-11-11T09:57:52;12.30;99.90
20524;DHT22;10420;48.542;12.270;2022-11-11T10:03:17;12.70;99.90
20524;DHT22;10420;48.542;12.270;2022-11-11T10:08:25;13.00;99.90
20524;DHT22;10420;48.542;12.270;2022-11-11T10:13:30;13.80;99.90
20524;DHT22;10420;48.542;12.270;2022-11-11T10:18:40;12.00;99.90
20524;DHT22;10420;48.542;12.270;2022-11-11T10:23:47;11.50;99.90
20524;DHT22;10420;48.542;12.270;2022-11-11T10:28:49;10.90;99.90
20524;DHT22;10420;48.542;12.270;2022-11-11T10:33:57;10.30;99.90
20524;DHT22;10420;48.542;12.270;2022-11-11T10:39:01;11.30;99.90
20524;DHT22;10420;48.542;12.270;2022-11-11T10:44:18;11.20;99.90
20524;DHT22;10420;48.542;12.270;2022-11-11T10:49:23;12.00;99.90
20524;DHT22;10420;48.542;12.270;2022-11-11T10:54:45;12.60;99.90
20524;DHT22;10420;48.542;12.270;2022-11-11T10:59:52;11.90;99.90
20524;DHT22;10420;48.542;12.270;2022-11-11T11:05:02;11.20;99.90
20524;DHT22;10420;48.542;12.270;2022-11-11T11:10:11;11.20;99.90
20524;DHT22;10420;48.542;12.270;2022-11-11T11:15:22;11.00;99.90
20524;DHT22;10420;48.542;12.270;2022-11-11T11:20:23;11.00;99.90
20524;DHT22;10420;48.542;12.270;2022-11-11T11:25:25;10.60;99.90
20524;DHT22;10420;48.542;12.270;2022-11-11T11:30:28;11.30;99.90
20524;DHT22;10420;48.542;12.270;2022-11-11T11:35:37;11.60;99.90
20524;DHT22;10420;48.542;12.270;2022-11-11T11:41:05;11.50;99.90
20524;DHT22;10420;48.542;12.270;2022-11-11T11:46:19;11.70;99.90
20524;DHT22;10420;48.542;12.270;2022-11-11T11:51:32;11.50;99.90
20524;DHT22;10420;48.542;12.270;2022-11-11T11:56:40;11.60;99.90
20524;DHT22;10420;48.542;12.270;2022-11-11T12:07:10;11.50;99.90
20524;DHT22;10420;48.542;12.270;2022-11-11T12:12:28;11.40;99.90
20524;DHT22;10420;48.542;12.270;2022-11-11T12:17:53;11.40;99.90
20524;DHT22;10420;48.542;12.270;2022-11-11T12:39:30;11.80;99.90
20524;DHT22;10420;48.542;12.270;2022-11-11T12:55:13;11.50;99.90
20524;DHT22;10420;48.542;12.270;2022-11-11T13:00:24;11.60;99.90
20524;DHT22;10420;48.542;12.270;2022-11-11T13:15:41;11.70;99.90
20524;DHT22;10420;48.542;12.270;2022-11-11T13:21:09;11.60;99.90
20524;DHT22;10420;48.542;12.270;2022-11-11T13:31:35;11.50;99.90
20524;DHT22;10420;48.542;12.270;2022-11-11T13:36:49;11.30;99.90
20524;DHT22;10420;48.542;12.270;2022-11-11T13:41:52;11.10;99.90
20524;DHT22;10420;48.542;12.270;2022-11-11T13:47:05;10.90;99.90
20524;DHT22;10420;48.542;12.270;2022-11-11T13:52:22;10.70;99.90
20524;DHT22;10420;48.542;12.270;2022-11-11T13:57:25;10.30;99.90
20524;DHT22;10420;48.542;12.270;2022-11-11T14:02:30;10.20;99.90
20524;DHT22;10420;48.542;12.270;2022-11-11T14:12:52;9.90;99.90
20524;DHT22;10420;48.542;12.270;2022-11-11T14:17:52;9.80;99.90
20524;DHT22;10420;48.542;12.270;2022-11-11T14:22:53;9.70;99.90
20524;DHT22;10420;48.542;12.270;2022-11-11T14:27:54;9.60;99.90
20524;DHT22;10420;48.542;12.270;2022-11-11T14:33:09;9.40;99.90
20524;DHT22;10420;48.542;12.270;2022-11-11T14:38:21;9.20;99.90
20524;DHT22;10420;48.542;12.270;2022-11-11T14:49:00;9.10;99.90
20524;DHT22;10420;48.542;12.270;2022-11-11T14:54:03;8.80;99.90
20524;DHT22;10420;48.542;12.270;2022-11-11T14:59:06;8.60;99.90
20524;DHT22;10420;48.542;12.270;2022-11-11T15:04:08;8.40;99.90
20524;DHT22;10420;48.542;12.270;2022-11-11T15:14:40;8.50;99.90
20524;DHT22;10420;48.542;12.270;2022-11-11T15:41:35;7.80;99.90
20524;DHT22;10420;48.542;12.270;2022-11-11T15:46:40;7.70;99.90
20524;DHT22;10420;48.542;12.270;2022-11-11T15:51:42;7.20;99.90
20524;DHT22;10420;48.542;12.270;2022-11-11T15:56:43;7.20;99.90
20524;DHT22;10420;48.542;12.270;2022-11-11T16:01:44;7.20;99.90
20524;DHT22;10420;48.542;12.270;2022-11-11T16:06:45;7.00;99.90
20524;DHT22;10420;48.542;12.270;2022-11-11T16:11:46;6.90;99.90
20524;DHT22;10420;48.542;12.270;2022-11-11T16:16:47;6.90;99.90
20524;DHT22;10420;48.542;12.270;2022-11-11T16:21:54;6.70;99.90
20524;DHT22;10420;48.542;12.270;2022-11-11T16:26:57;6.50;99.90
20524;DHT22;10420;48.542;12.270;2022-11-11T16:32:00;6.40;99.90
20524;DHT22;10420;48.542;12.270;2022-11-11T16:37:04;6.40;99.90
20524;DHT22;10420;48.542;12.270;2022-11-11T16:52:49;6.20;99.90
20524;DHT22;10420;48.542;12.270;2022-11-11T16:57:52;6.10;99.90
20524;DHT22;10420;48.542;12.270;2022-11-11T17:03:22;6.00;99.90
20524;DHT22;10420;48.542;12.270;2022-11-11T17:08:35;6.00;99.90
20524;DHT22;10420;48.542;12.270;2022-11-11T17:13:36;6.00;99.90
20524;DHT22;10420;48.542;12.270;2022-11-11T17:18:37;6.10;99.90
20524;DHT22;10420;48.542;12.270;2022-11-11T17:23:38;6.00;99.90
20524;DHT22;10420;48.542;12.270;2022-11-11T17:28:39;6.10;99.90
20524;DHT22;10420;48.542;12.270;2022-11-11T17:33:41;5.90;99.90
20524;DHT22;10420;48.542;12.270;2022-11-11T17:38:41;5.90;99.90
20524;DHT22;10420;48.542;12.270;2022-11-11T17:43:42;5.70;99.90
20524;DHT22;10420;48.542;12.270;2022-11-11T17:48:43;5.70;99.90
20524;DHT22;10420;48.542;12.270;2022-11-11T17:53:43;5.80;99.90
20524;DHT22;10420;48.542;12.270;2022-11-11T17:58:44;5.60;99.90
20524;DHT22;10420;48.542;12.270;2022-11-11T18:03:44;5.70;99.90
20524;DHT22;10420;48.542;12.270;2022-11-11T18:08:45;5.80;99.90
20524;DHT22;10420;48.542;12.270;2022-11-11T18:13:46;5.80;99.90
20524;DHT22;10420;48.542;12.270;2022-11-11T18:18:46;5.70;99.90
20524;DHT22;10420;48.542;12.270;2022-11-11T18:23:47;5.50;99.90
20524;DHT22;10420;48.542;12.270;2022-11-11T18:28:49;5.30;99.90
20524;DHT22;10420;48.542;12.270;2022-11-11T18:33:50;5.20;99.90
20524;DHT22;10420;48.542;12.270;2022-11-11T18:38:50;5.20;99.90
20524;DHT22;10420;48.542;12.270;2022-11-11T18:43:52;5.20;99.90
20524;DHT22;10420;48.542;12.270;2022-11-11T18:48:59;5.10;99.90
20524;DHT22;10420;48.542;12.270;2022-11-11T18:54:00;5.00;99.90
20524;DHT22;10420;48.542;12.270;2022-11-11T18:59:02;5.00;99.90
20524;DHT22;10420;48.542;12.270;2022-11-11T19:04:08;4.90;99.90
20524;DHT22;10420;48.542;12.270;2022-11-11T19:09:11;4.80;99.90
20524;DHT22;10420;48.542;12.270;2022-11-11T19:14:13;4.70;99.90
20524;DHT22;10420;48.542;12.270;2022-11-11T19:19:14;4.90;99.90
20524;DHT22;10420;48.542;12.270;2022-11-11T19:24:15;4.80;99.90
20524;DHT22;10420;48.542;12.270;2022-11-11T19:29:16;4.80;99.90
20524;DHT22;10420;48.542;12.270;2022-11-11T19:34:17;4.80;99.90
20524;DHT22;10420;48.542;12.270;2022-11-11T19:39:17;4.80;99.90
20524;DHT22;10420;48.542;12.270;2022-11-11T19:44:18;4.80;99.90
20524;DHT22;10420;48.542;12.270;2022-11-11T19:49:18;4.80;99.90
20524;DHT22;10420;48.542;12.270;2022-11-11T19:54:19;4.70;99.90
20524;DHT22;10420;48.542;12.270;2022-11-11T19:59:20;4.70;99.90
20524;DHT22;10420;48.542;12.270;2022-11-11T20:04:21;4.70;99.90
20524;DHT22;10420;48.542;12.270;2022-11-11T20:09:22;4.40;99.90
20524;DHT22;10420;48.542;12.270;2022-11-11T20:14:23;4.40;99.90
20524;DHT22;10420;48.542;12.270;2022-11-11T20:19:23;4.40;99.90
20524;DHT22;10420;48.542;12.270;2022-11-11T20:24:24;4.20;99.90
20524;DHT22;10420;48.542;12.270;2022-11-11T20:29:24;4.30;99.90
20524;DHT22;10420;48.542;12.270;2022-11-11T20:34:26;4.20;99.90
20524;DHT22;10420;48.542;12.270;2022-11-11T20:39:26;4.10;99.90
20524;DHT22;10420;48.542;12.270;2022-11-11T20:44:27;4.10;99.90
20524;DHT22;10420;48.542;12.270;2022-11-11T20:49:27;4.00;99.90
20524;DHT22;10420;48.542;12.270;2022-11-11T20:54:28;4.30;99.90
20524;DHT22;10420;48.542;12.270;2022-11-11T20:59:29;4.40;99.90
20524;DHT22;10420;48.542;12.270;2022-11-11T21:04:29;4.50;99.90
20524;DHT22;10420;48.542;12.270;2022-11-11T21:09:30;4.40;99.90
20524;DHT22;10420;48.542;12.270;2022-11-11T21:14:31;4.30;99.90
20524;DHT22;10420;48.542;12.270;2022-11-11T21:19:31;4.30;99.90
20524;DHT22;10420;48.542;12.270;2022-11-11T21:24:32;4.10;99.90
20524;DHT22;10420;48.542;12.270;2022-11-11T21:29:32;4.00;99.90
20524;DHT22;10420;48.542;12.270;2022-11-11T21:34:33;4.00;99.90
20524;DHT22;10420;48.542;12.270;2022-11-11T21:39:34;3.90;99.90
20524;DHT22;10420;48.542;12.270;2022-11-11T21:44:34;3.80;99.90
20524;DHT22;10420;48.542;12.270;2022-11-11T21:49:35;3.70;99.90
20524;DHT22;10420;48.542;12.270;2022-11-11T21:54:36;3.50;99.90
20524;DHT22;10420;48.542;12.270;2022-11-11T21:59:36;3.50;99.90
20524;DHT22;10420;48.542;12.270;2022-11-11T22:04:37;3.50;99.90
20524;DHT22;10420;48.542;12.270;2022-11-11T22:09:37;3.70;99.90
20524;DHT22;10420;48.542;12.270;2022-11-11T22:14:38;3.70;99.90
20524;DHT22;10420;48.542;12.270;2022-11-11T22:19:39;3.50;99.90
20524;DHT22;10420;48.542;12.270;2022-11-11T22:24:39;3.50;99.90
20524;DHT22;10420;48.542;12.270;2022-11-11T22:29:40;3.40;99.90
20524;DHT22;10420;48.542;12.270;2022-11-11T22:34:40;3.20;99.90
20524;DHT22;10420;48.542;12.270;2022-11-11T22:39:41;3.20;99.90
20524;DHT22;10420;48.542;12.270;2022-11-11T22:44:42;3.10;99.90
20524;DHT22;10420;48.542;12.270;2022-11-11T22:49:42;3.10;99.90
20524;DHT22;10420;48.542;12.270;2022-11-11T22:54:43;3.00;99.90
20524;DHT22;10420;48.542;12.270;2022-11-11T22:59:43;2.90;99.90
20524;DHT22;10420;48.542;12.270;2022-11-11T23:04:44;3.00;99.90
20524;DHT22;10420;48.542;12.270;2022-11-11T23:09:45;3.00;99.90
20524;DHT22;10420;48.542;12.270;2022-11-11T23:14:46;3.00;99.90
20524;DHT22;10420;48.542;12.270;2022-11-11T23:19:46;2.80;99.90
20524;DHT22;10420;48.542;12.270;2022-11-11T23:24:47;2.70;99.90
20524;DHT22;10420;48.542;12.270;2022-11-11T23:29:48;2.60;99.90
20524;DHT22;10420;48.542;12.270;2022-11-11T23:34:48;2.60;99.90
20524;DHT22;10420;48.542;12.270;2022-11-11T23:39:49;2.60;99.90
20524;DHT22;10420;48.542;12.270;2022-11-11T23:44:50;2.50;99.90
20524;DHT22;10420;48.542;12.270;2022-11-11T23:49:51;2.50;99.90
20524;DHT22;10420;48.542;12.270;2022-11-11T23:54:51;2.80;99.90
20524;DHT22;10420;48.542;12.270;2022-11-11T23:59:52;2.90;99.90
